Flight Track Log - Related Links

Times and Time Zones

All times are in EDT time to prevent confusion due to time zone crossing. See the RPA4291 flight status page for this flight to view local times or setup timezone preferences in your user account.

Time Position Orientation Groundspeed Altitude Reporting Facility
EDT Latitude Longitude Course Direction KTS MPH feet Rate Location/Type
Wed 08:30:05 PM 41.9333 -87.8833 270° West 237 273 2,700  Level Chicago TRACON
Wed 08:31:02 PM 41.8733 -87.9242 207° Southwest 254 292 4,900 1,866 Climbing Chicago Center
Wed 08:32:00 PM 41.9300 -88.4770 264° West  Level FlightAware
Wed 08:32:04 PM 41.8011 -87.9886 214° Southwest 287 330 6,400  Level Chicago Center
Wed 08:33:00 PM 41.9189 -88.6215 264° West  Level FlightAware
Wed 08:33:06 PM 41.8033 -88.0867 272° West 285 328 8,700  Level Chicago Center
Wed 08:34:00 PM 41.9088 -88.7649 251° West  Level FlightAware
Wed 08:34:08 PM 41.8375 -88.1808 296° West 283 326 11,600  Level Chicago Center
Wed 08:35:00 PM 41.9000 -88.8866 270° West  Level FlightAware
Wed 08:35:10 PM 41.8647 -88.2906 288° West 291 335 14,600  Level Chicago Center
Wed 08:36:12 PM 41.8756 -88.4131 277° West 333 383 15,900 1,645 Climbing Chicago Center
Wed 08:37:14 PM 41.8892 -88.5517 278° West 356 410 18,000 2,032 Climbing Chicago Center
Wed 08:38:16 PM 41.9017 -88.6853 277° West 359 413 20,100 2,081 Climbing Chicago Center
Wed 08:39:18 PM 41.9131 -88.8267 276° West 375 432 22,300 1,935 Climbing Chicago Center
Wed 08:40:20 PM 41.9067 -88.9694 267° West 380 437 24,100 1,597 Climbing Chicago Center
Wed 08:41:22 PM 41.8983 -89.1167 266° West 392 451 25,600 919 Climbing Chicago Center
Wed 08:42:24 PM 41.8872 -89.3008 265° West 412 474 26,000 194 Climbing Chicago Center
Wed 08:43:26 PM 41.8769 -89.4528 265° West 413 475 26,000  Level Chicago Center
Wed 08:44:28 PM 41.8678 -89.6011 265° West 406 467 26,000  Level Chicago Center
Wed 08:45:30 PM 41.8569 -89.7511 265° West 406 467 26,000  Level Chicago Center
Wed 08:46:32 PM 41.8475 -89.9014 265° West 406 467 26,000  Level Chicago Center
Wed 08:47:34 PM 41.8389 -90.0750 266° West 407 468 26,000  Level Chicago Center
Wed 08:48:36 PM 41.8292 -90.2231 265° West 406 467 26,000  Level Chicago Center
Wed 08:49:38 PM 41.8178 -90.3722 264° West 406 467 26,000  Level Chicago Center
Wed 08:50:40 PM 41.8067 -90.5219 264° West 406 467 26,000  Level Chicago Center
Wed 08:51:42 PM 41.7944 -90.6753 264° West 417 480 26,000  Level Chicago Center
Wed 08:52:45 PM 41.7806 -90.8544 264° West 411 473 26,000  Level Chicago Center
Wed 08:53:47 PM 41.7694 -91.0042 264° West 410 472 26,000  Level Chicago Center
Wed 08:54:49 PM 41.7581 -91.1547 264° West 410 472 26,000  Level Chicago Center
Wed 08:55:51 PM 41.7456 -91.3053 264° West 410 472 26,000  Level Chicago Center
Wed 08:56:53 PM 41.7339 -91.4561 264° West 410 472 26,000  Level Chicago Center
Wed 08:57:55 PM 41.7192 -91.6367 264° West 410 472 26,000  Level Chicago Center
Wed 08:58:57 PM 41.7069 -91.7897 264° West 411 473 26,000  Level Chicago Center
Wed 09:00:00 PM 41.6939 -91.9417 263° West 412 474 26,000  Level Chicago Center
Wed 09:01:02 PM 41.6819 -92.0931 264° West 412 474 26,000  Level Chicago Center
Wed 09:02:04 PM 41.6683 -92.2444 263° West 412 474 26,000  Level Chicago Center
Wed 09:03:06 PM 41.6517 -92.4247 263° West 412 474 26,000 -194 Level Chicago Center
Wed 09:04:08 PM 41.6378 -92.5753 263° West 412 474 25,600 -1,636 Descending Chicago Center
Wed 09:05:07 PM 41.6242 -92.7219 263° West 409 471 22,700 -3,025 Descending Minneapolis Center
Wed 09:06:09 PM 41.6111 -92.8672 263° West 405 466 19,500 -2,952 Descending Minneapolis Center
Wed 09:07:11 PM 41.5967 -93.0058 262° West 391 450 16,600 -2,806 Descending Minneapolis Center
Wed 09:08:13 PM 41.5642 -93.1369 252° West 382 440 13,700 -2,661 Descending Minneapolis Center
Wed 09:09:15 PM 41.5331 -93.2864 255° West 360 414 11,100 -2,177 Descending Minneapolis Center
Wed 09:10:06 PM 41.5197 -93.3703 258° West 287 330 9,600 -1,839 Descending Minneapolis Center
Wed 09:10:17 PM 41.5075 -93.3933 235° Southwest 298 343 9,200 -2,164 Descending Minneapolis Center
Wed 09:11:07 PM 41.4881 -93.4711 252° West 286 329 7,400 -2,032 Descending Minneapolis Center
Wed 09:11:19 PM 41.4778 -93.4939 239° Southwest 294 338 7,100 -2,100 Descending Minneapolis Center
Wed 09:12:07 PM 41.4622 -93.5658 254° West 270 311 5,300 -2,129 Descending Minneapolis Center
Wed 09:12:21 PM 41.4492 -93.5950 239° Southwest 271 312 4,900 -1,770 Descending Minneapolis Center
Wed 09:13:08 PM 41.4364 -93.6553 254° West 250 288 3,500 -1,742 Descending Minneapolis Center
Wed 09:13:23 PM 41.4258 -93.6839 244° Southwest 254 292 3,100 -984 Descending Minneapolis Center
Wed 09:14:09 PM 41.4228 -93.7331 265° West 204 235 2,500 -581 Descending Minneapolis Center
Wed 09:14:25 PM 41.4294 -93.7583 289° West 210 242 2,500  Level Minneapolis Center
Wed 09:15:09 PM 41.4689 -93.7569 North 175 201 2,500 -95 Level Minneapolis Center
Wed 09:15:28 PM 41.4769 -93.7597 346° North 179 206 2,400 -590 Descending Minneapolis Center
Wed 09:16:10 PM 41.4997 -93.7231 50° Northeast 135 155 1,900 -677 Descending Minneapolis Center
Wed 09:16:30 PM 41.5011 -93.7183 69° East 143 165 1,700 -689 Descending Minneapolis Center
Wed 09:17:11 PM 41.5222 -93.6836 51° Northeast 118 136 1,200 -677 Descending Minneapolis Center
Wed 09:17:32 PM 41.5231 -93.6781 79° East 131 151 1,000 -217 Descending Minneapolis Center
Wed 09:18:34 PM 41.5361 -93.6539 54° Northeast 83 96 900 -97 Descending Minneapolis Center

Login

Don't have an account? Register now (free) for customized features, flight alerts, and more!